Time;durP1;ratioP1;P1;durP2;ratioP2;P2;SDS_P1;SDS_P2;PMS_P1;PMS_P2;Temp;Humidity;BMP_temperature;BMP_pressure;BME280_temperature;BME280_humidity;BME280_pressure;Samples;Min_cycle;Max_cycle;Signal;HPM_P1;HPM_P2
2023/10/22 00:02:12;;;;;;;0.40;0.40;;;12.30;99.90;;;;;;5020797;28;20045;-71
2023/10/22 00:04:41;;;;;;;0.50;0.50;;;12.20;99.90;;;;;;5026312;28;20042;-71
2023/10/22 00:07:07;;;;;;;0.45;0.45;;;12.20;99.90;;;;;;5022894;28;20041;-70
2023/10/22 00:09:33;;;;;;;0.55;0.55;;;12.20;99.90;;;;;;5023071;28;20037;-70
2023/10/22 00:11:59;;;;;;;0.65;0.65;;;12.20;99.90;;;;;;5029274;28;20121;-70
2023/10/22 00:14:25;;;;;;;0.52;0.52;;;12.20;99.90;;;;;;5023613;28;20163;-71
2023/10/22 00:16:51;;;;;;;0.50;0.50;;;12.20;99.90;;;;;;5015269;28;20037;-70
2023/10/22 00:19:16;;;;;;;0.88;0.80;;;12.30;99.90;;;;;;5028933;28;20052;-70
2023/10/22 00:21:42;;;;;;;1.15;0.75;;;12.30;99.90;;;;;;5022279;28;20572;-70
2023/10/22 00:24:08;;;;;;;0.30;0.30;;;12.30;99.90;;;;;;5027801;28;20415;-71
2023/10/22 00:26:34;;;;;;;0.65;0.65;;;12.30;99.90;;;;;;5023129;28;20037;-71
2023/10/22 00:29:00;;;;;;;0.40;0.40;;;12.30;99.90;;;;;;5024487;28;20060;-70
2023/10/22 00:31:25;;;;;;;0.30;0.30;;;12.40;99.90;;;;;;5009720;28;20119;-71
2023/10/22 00:33:51;;;;;;;0.82;0.70;;;12.40;99.90;;;;;;5015079;28;20040;-71
2023/10/22 00:36:17;;;;;;;0.38;0.38;;;12.40;99.90;;;;;;5027565;28;20039;-71
2023/10/22 00:38:42;;;;;;;0.40;0.40;;;12.40;99.90;;;;;;5026016;28;20040;-69
2023/10/22 00:41:08;;;;;;;0.45;0.45;;;12.50;99.90;;;;;;5030114;28;20073;-71
2023/10/22 00:43:34;;;;;;;0.40;0.40;;;12.50;99.90;;;;;;5023641;28;20044;-71
2023/10/22 00:46:00;;;;;;;0.60;0.60;;;12.50;99.90;;;;;;5028315;28;20047;-70
2023/10/22 00:48:26;;;;;;;1.05;1.02;;;12.50;99.90;;;;;;5026426;28;20116;-71
2023/10/22 00:50:52;;;;;;;0.55;0.45;;;12.60;99.90;;;;;;5023736;28;20542;-70
2023/10/22 00:53:19;;;;;;;0.82;0.82;;;12.60;99.90;;;;;;5027570;28;20375;-71
2023/10/22 00:55:46;;;;;;;0.52;0.52;;;12.60;99.90;;;;;;5010946;28;20130;-71
2023/10/22 00:58:16;;;;;;;0.47;0.47;;;12.70;99.90;;;;;;5030026;28;20449;-70
2023/10/22 01:00:43;;;;;;;0.65;0.65;;;12.70;99.90;;;;;;5007916;28;20041;-71
2023/10/22 01:03:08;;;;;;;0.40;0.40;;;12.80;99.90;;;;;;5016779;28;20135;-71
2023/10/22 01:05:38;;;;;;;5.15;0.88;;;12.80;99.90;;;;;;5023493;28;20081;-71
2023/10/22 01:08:06;;;;;;;0.30;0.30;;;12.80;99.90;;;;;;5002368;28;20041;-71
2023/10/22 01:10:32;;;;;;;0.40;0.40;;;12.80;99.90;;;;;;5023673;28;20041;-71
2023/10/22 01:13:03;;;;;;;1.38;1.27;;;12.80;99.90;;;;;;5014528;28;20403;-70
2023/10/22 01:15:29;;;;;;;0.40;0.40;;;12.80;99.90;;;;;;5011611;28;20037;-71
2023/10/22 01:17:55;;;;;;;0.95;0.57;;;12.80;99.90;;;;;;5024762;28;20053;-71
2023/10/22 01:20:21;;;;;;;0.45;0.45;;;12.80;99.90;;;;;;5021850;28;20147;-71
2023/10/22 01:22:47;;;;;;;0.57;0.57;;;12.80;99.90;;;;;;5022237;28;20048;-71
2023/10/22 01:25:13;;;;;;;0.55;0.55;;;12.90;99.90;;;;;;5010599;28;20034;-69
2023/10/22 01:27:39;;;;;;;0.40;0.40;;;12.80;99.90;;;;;;5010681;28;20177;-70
2023/10/22 01:30:05;;;;;;;0.57;0.57;;;12.80;99.90;;;;;;5007158;28;20144;-70
2023/10/22 01:32:31;;;;;;;0.40;0.40;;;12.80;99.90;;;;;;5020285;28;20495;-71
2023/10/22 01:34:57;;;;;;;1.30;1.30;;;12.80;99.90;;;;;;5023365;28;20044;-70
2023/10/22 01:37:23;;;;;;;0.75;0.75;;;12.80;99.90;;;;;;5023614;28;20052;-71
2023/10/22 01:39:49;;;;;;;0.57;0.57;;;12.80;99.90;;;;;;5019478;28;20042;-70
2023/10/22 01:42:16;;;;;;;0.20;0.20;;;12.80;99.90;;;;;;5007512;28;20045;-71
2023/10/22 01:44:41;;;;;;;0.30;0.30;;;12.80;99.90;;;;;;5024414;28;20034;-70
2023/10/22 01:47:07;;;;;;;0.50;0.50;;;12.80;99.90;;;;;;5025430;28;20040;-71
2023/10/22 01:49:33;;;;;;;0.40;0.40;;;12.80;99.90;;;;;;5024242;28;20041;-71
2023/10/22 01:51:58;;;;;;;0.40;0.40;;;12.80;99.90;;;;;;5014358;28;20030;-71
2023/10/22 01:54:24;;;;;;;0.75;0.60;;;12.80;99.90;;;;;;5006467;28;20507;-70
2023/10/22 01:56:50;;;;;;;1.88;1.20;;;12.80;99.90;;;;;;5023220;28;20483;-71
2023/10/22 01:59:15;;;;;;;0.82;0.82;;;12.80;99.90;;;;;;5010550;28;20084;-71
2023/10/22 02:01:42;;;;;;;0.50;0.50;;;12.80;99.90;;;;;;5021716;28;20515;-71
2023/10/22 02:04:08;;;;;;;0.38;0.38;;;12.70;99.90;;;;;;5021165;28;20052;-71
2023/10/22 02:06:34;;;;;;;0.90;0.90;;;12.70;99.90;;;;;;5026110;28;20033;-71
2023/10/22 02:09:02;;;;;;;0.85;0.85;;;12.70;99.90;;;;;;5023563;28;20092;-71
2023/10/22 02:11:28;;;;;;;0.50;0.50;;;12.60;99.90;;;;;;5007537;28;20029;-71
2023/10/22 02:13:54;;;;;;;7.30;0.82;;;12.50;99.90;;;;;;5023415;28;20041;-71
2023/10/22 02:16:20;;;;;;;0.98;0.98;;;12.50;99.90;;;;;;5008568;28;20466;-71
2023/10/22 02:18:45;;;;;;;0.52;0.52;;;12.50;99.90;;;;;;5002563;28;20033;-71
2023/10/22 02:21:11;;;;;;;0.40;0.40;;;12.40;99.90;;;;;;5018654;28;20049;-70
2023/10/22 02:23:39;;;;;;;0.50;0.50;;;12.30;99.90;;;;;;5023321;28;20125;-71
2023/10/22 02:26:05;;;;;;;0.93;0.93;;;12.30;99.90;;;;;;5007583;28;20042;-70
2023/10/22 02:28:32;;;;;;;0.57;0.57;;;12.20;99.90;;;;;;5009994;28;20466;-71
2023/10/22 02:30:58;;;;;;;0.35;0.35;;;12.20;99.90;;;;;;5019820;28;20077;-71
2023/10/22 02:33:24;;;;;;;0.30;0.30;;;12.20;99.90;;;;;;5016488;28;20511;-70
2023/10/22 02:35:51;;;;;;;0.38;0.38;;;12.20;99.90;;;;;;5021276;28;20034;-71
2023/10/22 02:38:17;;;;;;;0.95;0.95;;;12.20;99.90;;;;;;5022833;28;20049;-71
2023/10/22 02:40:48;;;;;;;0.32;0.32;;;12.20;99.90;;;;;;5016949;28;20377;-70
2023/10/22 02:43:14;;;;;;;0.40;0.40;;;12.20;99.90;;;;;;5016808;28;20038;-69
2023/10/22 02:45:54;;;;;;;0.20;0.20;;;12.20;99.90;;;;;;5002413;28;20041;-71
2023/10/22 02:48:20;;;;;;;0.40;0.40;;;12.20;99.90;;;;;;5017863;28;20037;-71
2023/10/22 02:50:46;;;;;;;0.57;0.57;;;12.20;99.90;;;;;;5001856;28;20037;-71
2023/10/22 02:53:13;;;;;;;0.38;0.38;;;12.20;99.90;;;;;;5016937;28;20076;-71
2023/10/22 02:55:39;;;;;;;0.40;0.40;;;12.20;99.90;;;;;;5015452;28;20037;-71
2023/10/22 02:58:05;;;;;;;0.40;0.40;;;12.20;99.90;;;;;;5020190;28;20223;-70
2023/10/22 03:00:32;;;;;;;2.38;2.17;;;12.20;99.90;;;;;;5004085;28;20033;-71
2023/10/22 03:02:58;;;;;;;0.30;0.30;;;12.20;99.90;;;;;;5016365;28;20511;-71
2023/10/22 03:05:24;;;;;;;3.50;0.70;;;12.20;99.90;;;;;;5021066;28;20041;-72
2023/10/22 03:07:50;;;;;;;0.75;0.75;;;12.20;99.90;;;;;;5015901;28;20053;-71
2023/10/22 03:10:16;;;;;;;0.40;0.40;;;12.20;99.90;;;;;;5012009;28;20041;-71
2023/10/22 03:12:42;;;;;;;0.40;0.40;;;12.20;99.90;;;;;;5023430;28;20052;-71
2023/10/22 03:15:08;;;;;;;0.40;0.40;;;12.20;99.90;;;;;;5025808;28;20049;-71
2023/10/22 03:17:34;;;;;;;0.35;0.35;;;12.20;99.90;;;;;;5021661;28;20128;-71
2023/10/22 03:20:00;;;;;;;1.08;1.08;;;12.20;99.90;;;;;;5025859;28;20579;-71
2023/10/22 03:22:26;;;;;;;0.30;0.30;;;12.20;99.90;;;;;;5014031;28;20533;-71
2023/10/22 03:24:51;;;;;;;0.40;0.40;;;12.20;99.90;;;;;;5021856;28;20060;-71
2023/10/22 03:27:17;;;;;;;0.40;0.40;;;12.20;99.90;;;;;;5011048;28;20103;-71
2023/10/22 03:29:44;;;;;;;0.77;0.77;;;12.20;99.90;;;;;;4995251;28;20037;-71
2023/10/22 03:32:10;;;;;;;0.30;0.30;;;12.30;99.90;;;;;;5019041;28;20375;-71
2023/10/22 03:34:36;;;;;;;0.40;0.40;;;12.20;99.90;;;;;;5009264;28;20431;-71
2023/10/22 03:37:04;;;;;;;0.32;0.32;;;12.30;99.90;;;;;;5021471;28;20065;-70
2023/10/22 03:39:31;;;;;;;0.60;0.60;;;12.30;99.90;;;;;;4999610;28;20097;-71
2023/10/22 03:41:57;;;;;;;0.60;0.60;;;12.30;99.90;;;;;;5023208;28;20491;-70
2023/10/22 03:44:22;;;;;;;0.47;0.47;;;12.30;99.90;;;;;;5022012;28;20045;-71
2023/10/22 03:46:48;;;;;;;0.85;0.75;;;12.30;99.90;;;;;;5025195;28;20041;-71
2023/10/22 03:49:14;;;;;;;0.30;0.30;;;12.30;99.90;;;;;;5022755;28;20033;-70
2023/10/22 03:51:40;;;;;;;0.95;0.77;;;12.30;99.90;;;;;;5024920;28;20037;-71
2023/10/22 03:54:06;;;;;;;0.40;0.40;;;12.30;99.90;;;;;;5018735;28;20462;-71
2023/10/22 03:56:31;;;;;;;0.43;0.43;;;12.30;99.90;;;;;;5021777;28;20384;-70
2023/10/22 03:58:57;;;;;;;0.43;0.30;;;12.30;99.90;;;;;;5009727;28;20104;-71
2023/10/22 04:01:23;;;;;;;0.50;0.50;;;12.30;99.90;;;;;;5027833;28;20207;-71
2023/10/22 04:03:48;;;;;;;0.43;0.43;;;12.30;99.90;;;;;;5027564;28;20087;-71
2023/10/22 04:06:14;;;;;;;1.08;1.02;;;12.30;99.90;;;;;;5024039;28;20040;-70
2023/10/22 04:08:40;;;;;;;0.50;0.50;;;12.20;99.90;;;;;;5032418;28;20029;-71
2023/10/22 04:11:05;;;;;;;0.40;0.40;;;12.20;99.90;;;;;;5024043;28;20108;-71
2023/10/22 04:13:31;;;;;;;1.23;1.13;;;12.20;99.90;;;;;;5004512;28;20034;-71
2023/10/22 04:15:57;;;;;;;0.30;0.30;;;12.20;99.90;;;;;;5029373;28;20044;-71
2023/10/22 04:18:23;;;;;;;1.05;0.95;;;12.20;99.90;;;;;;5029773;28;20063;-71
2023/10/22 04:20:50;;;;;;;0.50;0.50;;;12.10;99.90;;;;;;5008854;28;20510;-71
2023/10/22 04:23:16;;;;;;;0.40;0.40;;;12.10;99.90;;;;;;5024075;28;20077;-71
2023/10/22 04:25:44;;;;;;;0.40;0.40;;;12.10;99.90;;;;;;5018041;28;20471;-71
2023/10/22 04:28:14;;;;;;;0.85;0.85;;;12.00;99.90;;;;;;5024459;28;20441;-71
2023/10/22 04:30:41;;;;;;;0.75;0.50;;;12.00;99.90;;;;;;5026768;28;20025;-71
2023/10/22 04:33:08;;;;;;;0.30;0.30;;;12.00;99.90;;;;;;5021305;28;20045;-70
2023/10/22 04:35:34;;;;;;;0.60;0.60;;;12.00;99.90;;;;;;5026296;28;20128;-70
2023/10/22 04:38:01;;;;;;;0.32;0.32;;;12.00;99.90;;;;;;5028109;28;20064;-71
2023/10/22 04:40:34;;;;;;;0.30;0.30;;;12.00;99.90;;;;;;5025505;28;20041;-70
2023/10/22 04:43:00;;;;;;;0.40;0.40;;;11.90;99.90;;;;;;5008731;28;20124;-70
2023/10/22 04:45:26;;;;;;;0.40;0.40;;;11.90;99.90;;;;;;5027524;28;20219;-71
2023/10/22 04:47:54;;;;;;;0.40;0.40;;;11.90;99.90;;;;;;5009149;28;20108;-71
2023/10/22 04:50:20;;;;;;;0.32;0.32;;;11.90;99.90;;;;;;5006531;28;20383;-71
2023/10/22 04:52:46;;;;;;;0.38;0.38;;;11.90;99.90;;;;;;5023080;28;20156;-71
2023/10/22 04:55:12;;;;;;;0.38;0.38;;;11.90;99.90;;;;;;5018933;28;20037;-70
2023/10/22 04:57:37;;;;;;;0.60;0.60;;;11.90;99.90;;;;;;5029361;28;20034;-71
2023/10/22 05:00:07;;;;;;;0.73;0.65;;;11.90;99.90;;;;;;5027171;28;20064;-71
2023/10/22 05:02:34;;;;;;;0.35;0.35;;;11.80;99.90;;;;;;5014534;28;20508;-71
2023/10/22 05:04:59;;;;;;;0.30;0.30;;;11.80;99.90;;;;;;5005851;28;20269;-70
2023/10/22 05:07:25;;;;;;;0.20;0.20;;;11.80;99.90;;;;;;5024169;28;20092;-71
2023/10/22 05:09:51;;;;;;;0.47;0.47;;;11.80;99.90;;;;;;5024178;28;20478;-71
2023/10/22 05:12:16;;;;;;;1.40;1.30;;;11.80;99.90;;;;;;5023839;28;20045;-70
2023/10/22 05:14:42;;;;;;;0.77;0.77;;;11.90;99.90;;;;;;5026024;28;20116;-70
2023/10/22 05:17:08;;;;;;;0.40;0.40;;;11.80;99.90;;;;;;5022142;28;20072;-70
2023/10/22 05:19:35;;;;;;;0.82;0.65;;;11.90;99.90;;;;;;5030544;28;20067;-70
2023/10/22 05:22:00;;;;;;;0.30;0.30;;;11.80;99.90;;;;;;5026588;28;20083;-70
2023/10/22 05:24:26;;;;;;;0.40;0.40;;;11.80;99.90;;;;;;5023902;28;20048;-71
2023/10/22 05:26:52;;;;;;;0.30;0.30;;;11.90;99.90;;;;;;5012729;28;20029;-71
2023/10/22 05:29:18;;;;;;;0.55;0.55;;;11.90;99.90;;;;;;5026824;28;20048;-71
2023/10/22 05:31:44;;;;;;;0.30;0.30;;;11.90;99.90;;;;;;5027447;28;20033;-70
2023/10/22 05:34:09;;;;;;;0.40;0.40;;;11.90;99.90;;;;;;4997664;28;20045;-71
2023/10/22 05:36:35;;;;;;;0.55;0.55;;;11.90;99.90;;;;;;5029760;28;20124;-71
2023/10/22 05:39:02;;;;;;;0.32;0.32;;;11.80;99.90;;;;;;5025691;28;20069;-70
2023/10/22 05:41:29;;;;;;;0.40;0.40;;;11.90;99.90;;;;;;5014409;28;20029;-71
2023/10/22 05:44:00;;;;;;;0.50;0.50;;;11.90;99.90;;;;;;5029372;28;20284;-71
2023/10/22 05:46:26;;;;;;;0.40;0.40;;;11.90;99.90;;;;;;5022573;28;20099;-71
2023/10/22 05:48:52;;;;;;;0.60;0.60;;;11.90;99.90;;;;;;5030510;28;20041;-71
2023/10/22 05:51:18;;;;;;;0.30;0.30;;;11.90;99.90;;;;;;5026988;28;20029;-71
2023/10/22 05:53:45;;;;;;;0.50;0.50;;;11.90;99.90;;;;;;5022340;28;20033;-70
2023/10/22 05:56:10;;;;;;;0.52;0.52;;;11.90;99.90;;;;;;5017044;28;20270;-70
2023/10/22 05:58:38;;;;;;;0.40;0.40;;;11.90;99.90;;;;;;5027084;28;20141;-70
2023/10/22 06:01:04;;;;;;;0.30;0.30;;;11.90;99.90;;;;;;5021438;28;20159;-70
2023/10/22 06:03:29;;;;;;;0.40;0.40;;;11.90;99.90;;;;;;5029042;28;20124;-70
2023/10/22 06:05:55;;;;;;;0.30;0.30;;;12.00;99.90;;;;;;5027119;28;20183;-70
2023/10/22 06:08:21;;;;;;;0.50;0.50;;;11.90;99.90;;;;;;5021672;28;20056;-70
2023/10/22 06:10:47;;;;;;;0.43;0.43;;;12.00;99.90;;;;;;5026812;28;20033;-70
2023/10/22 06:13:12;;;;;;;0.47;0.47;;;12.00;99.90;;;;;;5022618;28;20482;-70
2023/10/22 06:15:44;;;;;;;0.60;0.52;;;12.00;99.90;;;;;;5023881;28;20033;-70
2023/10/22 06:18:10;;;;;;;0.40;0.40;;;12.00;99.90;;;;;;5007518;28;20076;-70
2023/10/22 06:20:36;;;;;;;0.47;0.47;;;12.00;99.90;;;;;;5018305;28;20072;-70
2023/10/22 06:23:03;;;;;;;0.50;0.50;;;12.00;99.90;;;;;;5008725;28;20537;-70
2023/10/22 06:25:31;;;;;;;0.40;0.40;;;12.00;99.90;;;;;;5024775;28;20044;-70
2023/10/22 06:27:58;;;;;;;0.60;0.60;;;12.00;99.90;;;;;;5013980;28;20032;-70
2023/10/22 06:30:25;;;;;;;0.40;0.40;;;12.00;99.90;;;;;;5003162;28;20041;-70
2023/10/22 06:32:58;;;;;;;0.30;0.30;;;12.00;99.90;;;;;;5000999;28;20037;-70
2023/10/22 06:35:27;;;;;;;0.52;0.52;;;12.00;99.90;;;;;;5028046;28;20569;-70
2023/10/22 06:37:56;;;;;;;0.65;0.40;;;11.90;99.90;;;;;;5025016;28;20075;-70
2023/10/22 06:40:23;;;;;;;0.30;0.30;;;11.90;99.90;;;;;;5025649;28;20045;-70
2023/10/22 06:42:49;;;;;;;0.32;0.32;;;11.90;99.90;;;;;;5024174;28;20067;-70
2023/10/22 06:45:15;;;;;;;0.30;0.30;;;11.80;99.90;;;;;;5018735;28;20087;-69
2023/10/22 06:47:41;;;;;;;0.38;0.38;;;11.80;99.90;;;;;;5016404;28;20404;-70
2023/10/22 06:50:09;;;;;;;1.05;0.52;;;11.80;99.90;;;;;;5025415;28;20067;-69
2023/10/22 06:52:36;;;;;;;0.50;0.50;;;11.80;99.90;;;;;;5022005;28;20060;-69
2023/10/22 06:55:02;;;;;;;0.30;0.30;;;11.70;99.90;;;;;;5023327;28;20128;-70
2023/10/22 06:57:28;;;;;;;0.50;0.50;;;11.70;99.90;;;;;;5019553;28;20543;-70
2023/10/22 06:59:56;;;;;;;0.40;0.40;;;11.70;99.90;;;;;;5026623;28;20116;-70
2023/10/22 07:02:22;;;;;;;;;;;11.60;99.90;;;;;;5010348;28;20061;-70
2023/10/22 07:04:55;;;;;;;0.45;0.45;;;11.60;99.90;;;;;;5026926;28;20007;-69
2023/10/22 07:07:21;;;;;;;0.40;0.40;;;11.60;99.90;;;;;;5026461;28;20044;-70
2023/10/22 07:09:47;;;;;;;0.40;0.40;;;11.60;99.90;;;;;;5027193;28;20036;-70
2023/10/22 07:12:13;;;;;;;1.00;1.00;;;11.50;99.90;;;;;;5017285;28;20049;-69
2023/10/22 07:14:39;;;;;;;2.15;0.70;;;11.50;99.90;;;;;;5018624;28;20048;-70
2023/10/22 07:17:05;;;;;;;0.40;0.40;;;11.50;99.90;;;;;;5022641;28;20037;-70
2023/10/22 07:19:30;;;;;;;0.40;0.40;;;11.40;99.90;;;;;;5023081;28;20064;-70
2023/10/22 07:21:56;;;;;;;0.60;0.60;;;11.40;99.90;;;;;;5027471;28;20049;-69
2023/10/22 07:24:22;;;;;;;0.30;0.30;;;11.40;99.90;;;;;;5030886;28;20037;-70
2023/10/22 07:26:48;;;;;;;0.77;0.77;;;11.40;99.90;;;;;;5015643;28;20075;-69
2023/10/22 07:29:14;;;;;;;0.63;0.63;;;11.40;99.90;;;;;;5023361;28;20037;-71
2023/10/22 07:31:39;;;;;;;0.50;0.50;;;11.40;99.90;;;;;;5028685;28;20029;-73
2023/10/22 07:34:06;;;;;;;0.47;0.47;;;11.40;99.90;;;;;;5025418;28;20453;-73
2023/10/22 07:36:32;;;;;;;0.73;0.73;;;11.40;99.90;;;;;;5031215;28;20037;-73
2023/10/22 07:38:58;;;;;;;1.05;0.93;;;11.40;99.90;;;;;;5003592;28;20034;-73
2023/10/22 07:41:24;;;;;;;0.60;0.60;;;11.50;99.90;;;;;;5011753;28;20049;-72
2023/10/22 07:43:50;;;;;;;0.80;0.80;;;11.40;99.90;;;;;;5028327;28;20045;-71
2023/10/22 07:46:16;;;;;;;0.75;0.73;;;11.40;99.90;;;;;;5017961;28;20516;-73
2023/10/22 07:48:42;;;;;;;0.60;0.60;;;11.50;99.90;;;;;;5028538;28;20080;-73
2023/10/22 07:51:10;;;;;;;0.45;0.45;;;11.50;99.90;;;;;;5031251;28;20091;-73
2023/10/22 07:53:35;;;;;;;0.50;0.50;;;11.50;99.90;;;;;;5024359;28;20106;-73
2023/10/22 07:56:01;;;;;;;0.38;0.38;;;11.50;99.90;;;;;;5013845;28;20045;-72
2023/10/22 07:58:27;;;;;;;0.40;0.40;;;11.40;99.90;;;;;;5025208;28;20064;-73
2023/10/22 08:00:52;;;;;;;0.77;0.77;;;11.50;99.90;;;;;;5024073;28;20037;-73
2023/10/22 08:03:18;;;;;;;0.70;0.70;;;11.50;99.90;;;;;;5023243;28;20048;-73
2023/10/22 08:05:45;;;;;;;0.73;0.73;;;11.50;99.90;;;;;;5010967;28;20526;-73
2023/10/22 08:08:10;;;;;;;1.55;0.82;;;11.50;99.90;;;;;;5022756;28;20111;-71
2023/10/22 08:10:36;;;;;;;0.60;0.60;;;11.50;99.90;;;;;;5025567;28;20076;-73
2023/10/22 08:13:01;;;;;;;0.47;0.47;;;11.50;99.90;;;;;;5021419;28;20084;-73
2023/10/22 08:15:27;;;;;;;1.23;0.45;;;11.60;99.90;;;;;;5029539;28;20053;-73
2023/10/22 08:17:53;;;;;;;0.68;0.68;;;11.60;99.90;;;;;;5023801;28;20037;-73
2023/10/22 08:20:18;;;;;;;0.40;0.40;;;11.60;99.90;;;;;;5006983;28;20124;-73
2023/10/22 08:22:44;;;;;;;0.40;0.40;;;11.70;99.90;;;;;;5025063;28;20049;-73
2023/10/22 08:25:10;;;;;;;0.30;0.30;;;11.70;99.90;;;;;;5004042;28;20044;-72
2023/10/22 08:27:35;;;;;;;0.50;0.50;;;11.70;99.90;;;;;;5027788;28;20047;-73
2023/10/22 08:30:01;;;;;;;0.30;0.30;;;11.70;99.90;;;;;;5019928;28;20087;-73
2023/10/22 08:32:27;;;;;;;0.65;0.65;;;11.80;99.90;;;;;;5024691;28;20044;-73
2023/10/22 08:34:52;;;;;;;0.40;0.40;;;11.80;99.90;;;;;;5015665;28;20029;-73
2023/10/22 08:37:18;;;;;;;0.80;0.47;;;11.80;99.90;;;;;;5013291;28;20036;-73
2023/10/22 08:39:44;;;;;;;0.50;0.50;;;11.80;99.90;;;;;;5029476;28;20592;-72
2023/10/22 08:42:16;;;;;;;0.45;0.45;;;11.90;99.90;;;;;;5027004;28;20127;-73
2023/10/22 08:44:46;;;;;;;0.60;0.60;;;11.90;99.90;;;;;;5006780;28;20132;-73
2023/10/22 08:47:12;;;;;;;0.50;0.50;;;12.00;99.90;;;;;;5005903;28;20033;-73
2023/10/22 08:49:41;;;;;;;0.43;0.43;;;12.00;99.90;;;;;;5010236;28;20089;-73
2023/10/22 08:52:08;;;;;;;0.40;0.40;;;12.10;99.90;;;;;;5029860;28;20041;-73
2023/10/22 08:54:36;;;;;;;1.17;0.75;;;12.10;99.90;;;;;;5024534;28;20558;-73
2023/10/22 08:57:02;;;;;;;0.35;0.35;;;12.20;99.90;;;;;;5011900;28;20059;-72
2023/10/22 08:59:29;;;;;;;0.40;0.40;;;12.30;99.90;;;;;;5023687;28;20141;-73
2023/10/22 09:01:56;;;;;;;0.30;0.30;;;12.30;99.90;;;;;;5025191;28;20048;-73
2023/10/22 09:04:22;;;;;;;0.50;0.50;;;12.40;99.90;;;;;;5029240;28;20049;-73
2023/10/22 09:06:53;;;;;;;1.55;0.60;;;12.50;99.90;;;;;;5043899;28;20041;-72
2023/10/22 09:09:30;;;;;;;0.40;0.40;;;12.60;99.90;;;;;;5021732;28;20148;-73
2023/10/22 09:11:56;;;;;;;8.23;1.00;;;12.70;99.90;;;;;;5013667;28;20255;-72
2023/10/22 09:14:23;;;;;;;0.52;0.52;;;12.90;99.90;;;;;;5011919;28;20041;-72
2023/10/22 09:16:49;;;;;;;0.68;0.68;;;13.00;99.90;;;;;;5005969;28;20039;-72
2023/10/22 09:19:37;;;;;;;0.47;0.47;;;13.10;99.90;;;;;;5024429;28;20037;-73
2023/10/22 09:22:05;;;;;;;0.40;0.40;;;13.30;99.90;;;;;;5037019;28;20051;-73
2023/10/22 09:24:47;;;;;;;0.73;0.73;;;13.50;99.90;;;;;;5018318;28;20046;-73
2023/10/22 09:27:21;;;;;;;0.77;0.77;;;13.60;99.90;;;;;;5027022;28;20041;-73
2023/10/22 09:29:48;;;;;;;0.52;0.52;;;13.60;99.90;;;;;;5028212;28;20045;-73
2023/10/22 09:32:14;;;;;;;0.40;0.40;;;13.70;99.90;;;;;;5008491;28;20037;-71
2023/10/22 09:34:39;;;;;;;1.02;0.95;;;13.80;99.90;;;;;;5020577;28;20079;-72
2023/10/22 09:37:05;;;;;;;0.40;0.40;;;13.90;99.90;;;;;;5020276;28;20137;-73
2023/10/22 09:39:35;;;;;;;0.85;0.85;;;14.00;99.90;;;;;;5031214;28;20281;-73
2023/10/22 09:42:03;;;;;;;0.40;0.40;;;14.00;99.90;;;;;;5011754;28;20106;-73
2023/10/22 09:44:30;;;;;;;;;;;14.00;99.90;;;;;;5024138;28;20494;-73
2023/10/22 09:46:57;;;;;;;1.05;0.65;;;14.00;99.90;;;;;;5026328;28;19921;-72
2023/10/22 09:49:23;;;;;;;0.38;0.38;;;14.10;99.90;;;;;;5013582;28;20033;-73
2023/10/22 09:51:51;;;;;;;0.50;0.50;;;14.10;99.90;;;;;;5028354;28;20114;-73
2023/10/22 09:54:21;;;;;;;0.73;0.70;;;14.20;99.90;;;;;;5026004;28;20404;-73
2023/10/22 09:56:54;;;;;;;0.43;0.43;;;14.20;99.90;;;;;;5025734;28;20138;-73
2023/10/22 09:59:22;;;;;;;0.60;0.60;;;14.30;99.90;;;;;;5029215;28;20047;-73
2023/10/22 10:01:53;;;;;;;0.52;0.52;;;14.50;99.90;;;;;;5028201;28;20479;-73
2023/10/22 10:04:22;;;;;;;0.30;0.30;;;14.50;99.90;;;;;;5024967;28;20034;-73
2023/10/22 10:06:49;;;;;;;0.32;0.32;;;14.70;99.90;;;;;;5021980;28;20045;-73
2023/10/22 10:09:15;;;;;;;0.43;0.43;;;14.90;99.90;;;;;;5025458;28;20044;-73
2023/10/22 10:11:41;;;;;;;0.95;0.95;;;15.00;99.90;;;;;;5022562;28;20041;-73
2023/10/22 10:14:33;;;;;;;0.30;0.30;;;15.10;99.90;;;;;;5021491;28;20140;-73
2023/10/22 10:17:02;;;;;;;0.60;0.60;;;15.10;99.90;;;;;;5038792;28;20067;-73
2023/10/22 10:19:28;;;;;;;0.50;0.50;;;15.00;99.90;;;;;;5028378;28;20037;-72
2023/10/22 10:21:54;;;;;;;0.60;0.60;;;14.90;99.90;;;;;;5026086;28;20091;-73
2023/10/22 10:24:21;;;;;;;0.47;0.40;;;14.80;99.90;;;;;;5027282;28;20101;-73
2023/10/22 10:26:48;;;;;;;1.03;1.00;;;14.80;99.90;;;;;;5023815;28;20029;-72
2023/10/22 10:29:19;;;;;;;0.53;0.53;;;14.70;99.90;;;;;;5009367;28;20649;-73
2023/10/22 10:31:47;;;;;;;0.30;0.30;;;14.60;99.90;;;;;;5024572;28;20052;-73
2023/10/22 10:34:22;;;;;;;0.30;0.30;;;14.40;99.90;;;;;;5006379;28;20398;-73
2023/10/22 10:36:49;;;;;;;0.50;0.50;;;14.30;99.90;;;;;;5021500;28;20850;-73
2023/10/22 10:39:38;;;;;;;1.40;1.20;;;14.10;99.90;;;;;;5010505;28;20040;-73
2023/10/22 10:42:04;;;;;;;0.57;0.57;;;14.00;99.90;;;;;;5016798;28;20315;-73
2023/10/22 10:44:30;;;;;;;0.30;0.30;;;13.80;99.90;;;;;;5016403;28;20041;-73
2023/10/22 10:47:21;;;;;;;0.50;0.50;;;13.70;99.90;;;;;;5028226;28;20070;-71
2023/10/22 10:50:12;;;;;;;0.40;0.40;;;13.60;99.90;;;;;;5017294;28;20042;-73
2023/10/22 10:52:37;;;;;;;0.30;0.30;;;13.60;99.90;;;;;;5014873;28;20038;-73
2023/10/22 10:55:15;;;;;;;0.70;0.70;;;13.60;99.90;;;;;;5020509;28;20138;-74
2023/10/22 10:57:42;;;;;;;;;;;13.50;99.90;;;;;;5001003;28;20104;-74
2023/10/22 11:00:10;;;;;;;0.50;0.50;;;13.40;99.90;;;;;;5003737;28;20007;-74
2023/10/22 11:02:43;;;;;;;0.40;0.40;;;13.30;99.90;;;;;;5022080;28;20056;-74
2023/10/22 11:05:10;;;;;;;0.40;0.40;;;13.30;99.90;;;;;;5021343;28;20103;-73
2023/10/22 11:07:37;;;;;;;0.50;0.50;;;13.20;99.90;;;;;;5028986;28;20159;-74
2023/10/22 11:10:14;;;;;;;0.30;0.30;;;13.20;99.90;;;;;;5028293;28;20512;-74
2023/10/22 11:12:41;;;;;;;0.30;0.30;;;13.10;99.90;;;;;;5026121;28;20460;-74
2023/10/22 11:15:09;;;;;;;0.43;0.43;;;13.00;99.90;;;;;;5022787;28;20045;-73
2023/10/22 11:17:35;;;;;;;0.30;0.30;;;13.00;99.90;;;;;;5026002;28;20040;-73
2023/10/22 11:20:04;;;;;;;0.55;0.52;;;13.10;99.90;;;;;;5026390;28;20526;-74
2023/10/22 11:22:31;;;;;;;0.52;0.52;;;13.10;99.90;;;;;;5021260;28;20044;-74
2023/10/22 11:25:28;;;;;;;1.65;0.70;;;13.20;99.90;;;;;;5027630;28;20457;-73
2023/10/22 11:27:54;;;;;;;0.25;0.25;;;13.30;99.90;;;;;;5021288;28;20510;-73
2023/10/22 11:30:37;;;;;;;0.43;0.43;;;13.30;99.90;;;;;;5011459;28;20036;-73
2023/10/22 11:33:05;;;;;;;0.38;0.38;;;13.40;99.90;;;;;;5024301;28;20049;-74
2023/10/22 11:35:31;;;;;;;0.40;0.40;;;13.30;99.90;;;;;;5023143;28;20531;-74
2023/10/22 11:38:00;;;;;;;0.30;0.30;;;13.30;99.90;;;;;;5027410;28;20033;-73
2023/10/22 11:40:30;;;;;;;0.40;0.40;;;13.30;99.90;;;;;;4999688;28;20041;-74
2023/10/22 11:43:12;;;;;;;0.50;0.50;;;13.30;99.90;;;;;;5022478;28;20049;-73
2023/10/22 11:45:48;;;;;;;0.43;0.43;;;13.30;99.90;;;;;;5022036;28;20041;-74
2023/10/22 11:48:18;;;;;;;0.65;0.65;;;13.40;99.90;;;;;;5008260;28;20123;-73
2023/10/22 11:50:49;;;;;;;0.30;0.30;;;13.60;99.90;;;;;;5005260;28;20479;-74
2023/10/22 11:53:16;;;;;;;1.63;0.90;;;13.80;99.90;;;;;;5007660;28;20047;-74
2023/10/22 11:55:43;;;;;;;0.57;0.57;;;13.90;99.90;;;;;;5026871;28;20075;-74
2023/10/22 11:58:19;;;;;;;0.47;0.47;;;13.90;99.90;;;;;;5009688;28;20073;-74
2023/10/22 12:00:46;;;;;;;0.40;0.40;;;13.90;99.90;;;;;;5015822;28;20053;-72
2023/10/22 12:03:12;;;;;;;1.60;0.73;;;13.90;99.90;;;;;;4997933;28;20068;-74
2023/10/22 12:05:37;;;;;;;1.23;0.70;;;13.90;99.90;;;;;;5021267;28;20080;-74
2023/10/22 12:08:03;;;;;;;0.50;0.50;;;13.90;99.90;;;;;;5028564;28;20041;-74
2023/10/22 12:10:29;;;;;;;0.50;0.50;;;13.90;99.90;;;;;;5029091;28;20037;-74
2023/10/22 12:12:54;;;;;;;0.50;0.50;;;13.90;99.90;;;;;;5025388;28;20051;-74
2023/10/22 12:15:20;;;;;;;0.50;0.50;;;13.90;99.90;;;;;;5022311;28;20466;-73
2023/10/22 12:17:46;;;;;;;0.40;0.40;;;14.00;99.90;;;;;;5012990;28;20049;-75
2023/10/22 12:20:12;;;;;;;0.30;0.30;;;14.00;99.90;;;;;;5014800;28;20080;-75
2023/10/22 12:22:37;;;;;;;0.68;0.68;;;14.00;99.90;;;;;;5010289;28;20037;-74
2023/10/22 12:25:07;;;;;;;0.40;0.40;;;14.10;99.90;;;;;;5010619;28;20037;-76
2023/10/22 12:27:32;;;;;;;0.90;0.90;;;14.10;99.90;;;;;;5007799;28;20424;-75
2023/10/22 12:30:03;;;;;;;0.50;0.50;;;14.00;99.90;;;;;;5027315;28;20120;-76
2023/10/22 12:32:28;;;;;;;0.45;0.45;;;14.00;99.90;;;;;;5002152;28;20083;-75
2023/10/22 12:34:54;;;;;;;0.38;0.38;;;14.10;99.90;;;;;;5013070;28;20061;-76
2023/10/22 12:37:20;;;;;;;0.40;0.40;;;14.10;99.90;;;;;;5017263;28;20041;-75
2023/10/22 12:39:46;;;;;;;0.40;0.32;;;14.10;99.90;;;;;;5027933;28;20253;-75
2023/10/22 12:42:12;;;;;;;0.40;0.40;;;14.10;99.90;;;;;;5016529;28;20047;-74
2023/10/22 12:44:43;;;;;;;0.40;0.40;;;14.20;99.90;;;;;;5021142;28;20033;-74
2023/10/22 12:47:12;;;;;;;0.45;0.45;;;14.30;99.90;;;;;;5028271;28;20482;-72
2023/10/22 12:49:47;;;;;;;0.90;0.90;;;14.30;99.90;;;;;;5025267;28;20033;-72